Time;durP1;ratioP1;P1;durP2;ratioP2;P2;SDS_P1;SDS_P2;PMS_P1;PMS_P2;Temp;Humidity;BMP_temperature;BMP_pressure;BME280_temperature;BME280_humidity;BME280_pressure;Samples;Min_cycle;Max_cycle;Signal;HPM_P1;HPM_P2
2021/08/29 00:01:11;;;;;;;7.50;6.90;;;12.50;99.90;;;;;;5097127;28;20627;-96
2021/08/29 00:03:42;;;;;;;8.37;7.57;;;12.60;99.90;;;;;;5077952;28;20617;-96
2021/08/29 00:06:39;;;;;;;6.50;6.00;;;12.60;99.90;;;;;;5098779;28;20652;-96
2021/08/29 00:09:07;;;;;;;7.30;6.60;;;12.50;99.90;;;;;;5077559;28;20660;-96
2021/08/29 00:11:34;;;;;;;5.50;5.20;;;12.50;99.90;;;;;;5077307;28;20644;-96
2021/08/29 00:14:01;;;;;;;7.00;6.30;;;12.50;99.90;;;;;;5082581;28;20638;-96
2021/08/29 00:16:39;;;;;;;6.77;6.20;;;12.50;99.90;;;;;;5078275;28;20689;-96
2021/08/29 00:19:07;;;;;;;6.67;6.17;;;12.50;99.90;;;;;;5074611;28;20638;-95
2021/08/29 00:21:34;;;;;;;7.03;6.43;;;12.50;99.90;;;;;;5075787;28;20728;-96
2021/08/29 00:24:02;;;;;;;6.83;6.33;;;12.60;99.90;;;;;;5075562;28;21058;-96
2021/08/29 00:26:29;;;;;;;6.07;5.67;;;12.60;99.90;;;;;;5076606;28;20649;-94
2021/08/29 00:28:56;;;;;;;7.27;6.00;;;12.50;99.90;;;;;;5076428;28;20631;-96
2021/08/29 00:31:23;;;;;;;6.70;6.20;;;12.50;99.90;;;;;;5084875;28;20630;-96
2021/08/29 00:33:53;;;;;;;6.33;5.93;;;12.60;99.90;;;;;;5081381;28;20671;-96
2021/08/29 00:39:44;;;;;;;6.57;6.07;;;12.50;99.90;;;;;;5081757;28;20985;-96
2021/08/29 00:45:35;;;;;;;6.20;5.70;;;12.60;99.90;;;;;;5083575;28;20901;-96
2021/08/29 00:48:14;;;;;;;7.30;6.67;;;12.60;99.90;;;;;;5090026;28;20703;-96
2021/08/29 00:58:23;;;;;;;6.17;5.67;;;12.60;99.90;;;;;;5004966;28;20688;-96
2021/08/29 01:00:58;;;;;;;6.07;5.67;;;12.60;99.90;;;;;;4999011;28;20740;-96
2021/08/29 01:03:27;;;;;;;5.80;5.40;;;12.70;99.90;;;;;;4998525;28;20735;-96
2021/08/29 01:06:00;;;;;;;6.13;5.63;;;12.70;99.90;;;;;;5016204;28;20718;-96
2021/08/29 01:08:32;;;;;;;5.83;5.20;;;12.70;99.90;;;;;;5000325;28;20697;-96
2021/08/29 01:11:06;;;;;;;7.03;6.43;;;12.70;99.90;;;;;;5000692;28;20751;-96
2021/08/29 01:14:05;;;;;;;6.13;5.53;;;12.70;99.90;;;;;;4999281;28;20628;-96
2021/08/29 01:16:35;;;;;;;5.83;5.43;;;12.70;99.90;;;;;;5004173;28;20651;-96
2021/08/29 01:19:12;;;;;;;5.93;5.33;;;12.60;99.90;;;;;;5001423;28;20729;-96
2021/08/29 01:25:02;;;;;;;6.60;6.10;;;12.70;99.90;;;;;;5017041;28;20577;-95
2021/08/29 01:27:42;;;;;;;6.30;5.83;;;12.70;99.90;;;;;;5012516;28;20668;-95
2021/08/29 01:30:13;;;;;;;6.20;5.70;;;12.70;99.90;;;;;;5004368;28;20640;-94
2021/08/29 01:32:41;;;;;;;7.17;6.47;;;12.70;99.90;;;;;;5012869;28;20680;-94
2021/08/29 01:35:09;;;;;;;6.50;5.90;;;12.70;99.90;;;;;;5008388;28;21311;-95
2021/08/29 01:37:43;;;;;;;6.50;5.90;;;12.70;99.90;;;;;;4995816;28;20677;-96
2021/08/29 01:40:12;;;;;;;7.40;6.80;;;12.70;99.90;;;;;;5000066;28;20637;-96
2021/08/29 01:45:53;;;;;;;6.37;5.90;;;12.70;99.90;;;;;;5005839;28;20561;-95
2021/08/29 01:48:21;;;;;;;6.63;6.13;;;12.80;99.90;;;;;;5004483;28;20664;-96
2021/08/29 01:50:48;;;;;;;7.23;6.60;;;12.70;99.90;;;;;;5024738;28;20619;-96
2021/08/29 01:53:15;;;;;;;6.00;5.53;;;12.70;99.90;;;;;;5015099;28;20704;-94
2021/08/29 01:55:42;;;;;;;7.20;6.67;;;12.70;99.90;;;;;;5005456;28;20659;-93
2021/08/29 01:58:09;;;;;;;7.40;6.90;;;12.70;99.90;;;;;;5000111;28;20760;-93
2021/08/29 02:00:49;;;;;;;6.50;6.00;;;12.70;99.90;;;;;;5004919;28;20633;-94
2021/08/29 02:03:18;;;;;;;7.10;6.60;;;12.70;99.90;;;;;;5001071;28;20712;-94
2021/08/29 02:05:58;;;;;;;7.33;6.73;;;12.70;99.90;;;;;;5004021;28;20731;-93
2021/08/29 02:08:26;;;;;;;7.83;7.27;;;12.60;99.90;;;;;;5008830;28;20679;-95
2021/08/29 02:11:00;;;;;;;7.00;6.50;;;12.70;99.90;;;;;;5023143;28;20644;-95
2021/08/29 02:13:29;;;;;;;7.60;6.90;;;12.70;99.90;;;;;;5020879;28;20616;-93
2021/08/29 02:16:01;;;;;;;6.53;6.00;;;12.70;99.90;;;;;;5014235;28;20625;-94
2021/08/29 02:18:43;;;;;;;7.17;6.47;;;12.60;99.90;;;;;;5017775;28;20666;-94
2021/08/29 02:21:14;;;;;;;6.90;6.40;;;12.70;99.90;;;;;;5017502;28;20708;-95
2021/08/29 02:23:50;;;;;;;6.73;6.13;;;12.60;99.90;;;;;;5014656;28;20629;-95
2021/08/29 02:26:17;;;;;;;6.90;6.40;;;12.60;99.90;;;;;;5018786;28;20652;-96
2021/08/29 02:28:48;;;;;;;6.47;6.07;;;12.60;99.90;;;;;;5014648;28;20644;-95
2021/08/29 02:31:19;;;;;;;7.97;7.27;;;12.60;99.90;;;;;;5010390;28;20704;-94
2021/08/29 02:33:48;;;;;;;7.00;6.40;;;12.60;99.90;;;;;;5001562;28;20663;-95
2021/08/29 02:36:17;;;;;;;6.93;6.33;;;12.60;99.90;;;;;;5019237;28;20644;-96
2021/08/29 02:38:45;;;;;;;8.90;5.77;;;12.70;99.90;;;;;;5018701;28;20663;-94
2021/08/29 02:41:12;;;;;;;6.50;6.00;;;12.60;99.90;;;;;;5010016;28;21337;-95
2021/08/29 02:43:40;;;;;;;7.50;6.80;;;12.60;99.90;;;;;;5011470;28;20635;-95
2021/08/29 02:46:08;;;;;;;8.10;6.83;;;12.60;99.90;;;;;;5017140;28;20687;-95
2021/08/29 02:48:44;;;;;;;7.17;6.57;;;12.60;99.90;;;;;;5017628;28;20635;-96
2021/08/29 02:51:13;;;;;;;7.10;6.57;;;12.60;99.90;;;;;;5022513;28;20618;-94
2021/08/29 02:53:40;;;;;;;9.77;7.47;;;12.50;99.90;;;;;;5007791;28;20646;-94
2021/08/29 02:56:09;;;;;;;7.07;6.57;;;12.60;99.90;;;;;;4996826;28;20643;-94
2021/08/29 02:58:36;;;;;;;6.53;6.13;;;12.60;99.90;;;;;;4996540;28;20671;-94
2021/08/29 03:01:05;;;;;;;7.60;7.00;;;12.60;99.90;;;;;;5005458;28;20650;-96
2021/08/29 03:03:32;;;;;;;7.27;6.57;;;12.60;99.90;;;;;;4997268;28;20633;-96
2021/08/29 03:05:59;;;;;;;7.63;6.33;;;12.60;99.90;;;;;;5001941;28;21185;-96
2021/08/29 03:08:28;;;;;;;8.10;7.40;;;12.60;99.90;;;;;;5000711;28;20632;-94
2021/08/29 03:10:55;;;;;;;7.27;6.67;;;12.60;99.90;;;;;;4991901;28;20640;-93
2021/08/29 03:13:23;;;;;;;7.37;6.73;;;12.60;99.90;;;;;;4987073;28;20573;-95
2021/08/29 03:15:50;;;;;;;7.30;6.70;;;12.60;99.90;;;;;;4992078;28;20637;-95
2021/08/29 03:18:18;;;;;;;7.90;7.30;;;12.60;99.90;;;;;;4993029;28;20676;-95
2021/08/29 03:20:46;;;;;;;6.93;6.40;;;12.60;99.90;;;;;;4991458;28;21401;-95
2021/08/29 03:23:14;;;;;;;8.70;7.67;;;12.60;99.90;;;;;;4995433;28;20640;-95
2021/08/29 03:25:43;;;;;;;7.47;6.87;;;12.60;99.90;;;;;;5005725;28;21048;-96
2021/08/29 03:28:11;;;;;;;6.87;6.37;;;12.60;99.90;;;;;;5010282;28;20748;-94
2021/08/29 03:30:39;;;;;;;8.13;7.53;;;12.50;99.90;;;;;;4999940;28;20736;-96
2021/08/29 03:33:06;;;;;;;8.20;7.60;;;12.50;99.90;;;;;;5000245;28;21233;-95
2021/08/29 03:35:35;;;;;;;9.07;8.27;;;12.50;99.90;;;;;;5005438;28;20657;-96
2021/08/29 03:38:04;;;;;;;8.30;7.70;;;12.50;99.90;;;;;;5015324;28;20687;-96
2021/08/29 03:40:32;;;;;;;7.80;7.27;;;12.50;99.90;;;;;;5004070;28;21198;-96
2021/08/29 03:43:11;;;;;;;7.87;7.10;;;12.50;99.90;;;;;;5007254;28;20647;-96
2021/08/29 03:45:38;;;;;;;7.60;7.00;;;12.50;99.90;;;;;;5007048;28;20668;-96
2021/08/29 03:48:07;;;;;;;7.37;6.77;;;12.50;99.90;;;;;;5008176;28;20728;-95
2021/08/29 03:50:37;;;;;;;9.13;7.37;;;12.50;99.90;;;;;;5019674;28;20646;-95
2021/08/29 03:53:07;;;;;;;7.37;6.77;;;12.50;99.90;;;;;;5010519;28;20735;-96
2021/08/29 03:55:34;;;;;;;6.70;6.20;;;12.60;99.90;;;;;;5010072;28;20617;-96
2021/08/29 03:58:05;;;;;;;7.03;6.53;;;12.60;99.90;;;;;;5007008;28;20779;-96
2021/08/29 04:00:34;;;;;;;7.03;6.37;;;12.50;99.90;;;;;;5004087;28;20683;-95
2021/08/29 04:03:03;;;;;;;8.00;7.40;;;12.50;99.90;;;;;;5003618;28;20728;-95
2021/08/29 04:05:30;;;;;;;7.10;6.60;;;12.50;99.90;;;;;;5001216;28;20655;-95
2021/08/29 04:08:09;;;;;;;7.70;7.10;;;12.50;99.90;;;;;;4997553;28;20756;-96
2021/08/29 04:10:37;;;;;;;7.13;6.63;;;12.50;99.90;;;;;;4995613;28;20739;-95
2021/08/29 04:13:07;;;;;;;9.23;7.40;;;12.50;99.90;;;;;;4995383;28;20645;-94
2021/08/29 04:15:38;;;;;;;7.40;6.70;;;12.50;99.90;;;;;;4996329;28;20608;-94
2021/08/29 04:18:06;;;;;;;8.03;7.40;;;12.50;99.90;;;;;;4995940;28;20687;-94
2021/08/29 04:20:34;;;;;;;7.70;7.10;;;12.50;99.90;;;;;;4997991;28;20639;-93
2021/08/29 04:23:01;;;;;;;9.63;8.67;;;12.50;99.90;;;;;;4992031;28;20648;-94
2021/08/29 04:25:29;;;;;;;7.43;6.93;;;12.50;99.90;;;;;;4997552;28;21179;-94
2021/08/29 04:27:56;;;;;;;7.80;7.10;;;12.50;99.90;;;;;;4993933;28;20735;-93
2021/08/29 04:30:24;;;;;;;8.03;7.50;;;12.40;99.90;;;;;;4994859;28;20639;-94
2021/08/29 04:32:54;;;;;;;9.03;8.33;;;12.50;99.90;;;;;;4993052;28;20739;-94
2021/08/29 04:35:21;;;;;;;7.73;7.10;;;12.40;99.90;;;;;;4991100;28;20640;-95
2021/08/29 04:37:49;;;;;;;7.67;7.07;;;12.50;99.90;;;;;;5001758;28;20738;-95
2021/08/29 04:40:22;;;;;;;9.10;8.43;;;12.40;99.90;;;;;;5002333;28;20735;-96
2021/08/29 04:42:49;;;;;;;9.57;8.70;;;12.40;99.90;;;;;;5004547;28;21015;-95
2021/08/29 04:45:18;;;;;;;9.20;8.50;;;12.50;99.90;;;;;;5009592;28;20713;-96
2021/08/29 04:47:48;;;;;;;10.80;10.00;;;12.50;99.90;;;;;;5012512;28;20636;-95
2021/08/29 04:50:18;;;;;;;8.63;8.03;;;12.50;99.90;;;;;;5019886;28;20659;-95
2021/08/29 04:52:47;;;;;;;9.93;9.23;;;12.50;99.90;;;;;;5019584;28;20640;-96
2021/08/29 04:55:14;;;;;;;10.07;9.33;;;12.40;99.90;;;;;;5024255;28;20607;-94
2021/08/29 04:57:41;;;;;;;10.30;9.50;;;12.40;99.90;;;;;;5012404;28;20683;-96
2021/08/29 05:00:10;;;;;;;10.27;9.47;;;12.40;99.90;;;;;;5010733;28;20735;-94
2021/08/29 05:02:38;;;;;;;8.40;7.80;;;12.40;99.90;;;;;;5011108;28;20642;-95
2021/08/29 05:05:06;;;;;;;9.30;8.43;;;12.50;99.90;;;;;;4998442;28;20641;-96
2021/08/29 05:07:39;;;;;;;10.00;9.20;;;12.40;99.90;;;;;;4996305;28;20769;-96
2021/08/29 05:10:07;;;;;;;10.53;9.70;;;12.50;99.90;;;;;;4995008;28;20644;-95
2021/08/29 05:12:34;;;;;;;9.37;8.67;;;12.50;99.90;;;;;;4994592;28;20628;-96
2021/08/29 05:15:01;;;;;;;8.27;7.67;;;12.40;99.90;;;;;;4996391;28;20632;-96
2021/08/29 05:17:28;;;;;;;8.83;8.13;;;12.40;99.90;;;;;;4999168;28;20664;-94
2021/08/29 05:19:55;;;;;;;10.27;7.50;;;12.50;99.90;;;;;;4994960;28;20667;-95
2021/08/29 05:22:22;;;;;;;8.70;8.00;;;12.50;99.90;;;;;;5011276;28;20628;-95
2021/08/29 05:24:51;;;;;;;7.83;7.13;;;12.50;99.90;;;;;;5016265;28;20617;-94
2021/08/29 05:27:18;;;;;;;8.10;7.50;;;12.50;99.90;;;;;;5007471;28;20648;-95
2021/08/29 05:29:44;;;;;;;7.63;6.93;;;12.50;99.90;;;;;;5014394;28;20675;-92
2021/08/29 05:32:11;;;;;;;7.93;7.23;;;12.50;99.90;;;;;;5013746;28;20637;-94
2021/08/29 05:34:38;;;;;;;7.43;6.90;;;12.50;99.90;;;;;;5014306;28;20633;-94
2021/08/29 05:37:05;;;;;;;7.20;6.60;;;12.60;99.90;;;;;;5015487;28;20727;-94
2021/08/29 05:39:34;;;;;;;7.70;7.20;;;12.60;99.90;;;;;;5007452;28;20663;-94
2021/08/29 05:46:04;;;;;;;7.73;7.13;;;12.70;99.90;;;;;;5122240;27;24515;-94
2021/08/29 05:48:34;;;;;;;7.60;7.10;;;12.70;99.90;;;;;;5115933;28;20657;-96
2021/08/29 05:51:02;;;;;;;6.50;6.10;;;12.80;99.90;;;;;;5120976;28;20625;-93
2021/08/29 05:53:31;;;;;;;7.07;6.47;;;12.70;99.90;;;;;;5114437;28;20682;-96
2021/08/29 05:55:59;;;;;;;7.17;6.43;;;12.70;99.90;;;;;;5109754;28;20689;-96
2021/08/29 05:58:26;;;;;;;6.40;6.00;;;12.70;99.90;;;;;;5107625;28;21084;-95
2021/08/29 06:00:55;;;;;;;6.70;6.30;;;12.70;99.90;;;;;;5110017;28;20969;-95
2021/08/29 06:03:31;;;;;;;8.33;7.73;;;12.70;99.90;;;;;;5114186;28;20676;-96
2021/08/29 06:06:04;;;;;;;6.00;5.60;;;12.70;99.90;;;;;;5117525;28;21078;-96
2021/08/29 06:08:37;;;;;;;7.00;6.40;;;12.80;99.90;;;;;;5119321;28;20739;-96
2021/08/29 06:11:07;;;;;;;6.20;5.70;;;12.70;99.90;;;;;;5113515;28;20631;-94
2021/08/29 06:13:47;;;;;;;7.40;6.80;;;12.80;99.90;;;;;;5110477;28;20794;-95
2021/08/29 06:16:14;;;;;;;6.90;6.33;;;12.70;99.90;;;;;;5109967;28;20611;-94
2021/08/29 06:18:42;;;;;;;9.80;6.63;;;12.70;99.90;;;;;;5108613;28;20722;-93
2021/08/29 06:21:09;;;;;;;7.53;6.87;;;12.70;99.90;;;;;;5107247;28;20642;-94
2021/08/29 06:23:36;;;;;;;6.97;6.37;;;12.80;99.90;;;;;;5109500;28;21222;-92
2021/08/29 06:26:03;;;;;;;6.70;6.10;;;12.80;99.90;;;;;;5107789;28;20639;-93
2021/08/29 06:28:30;;;;;;;6.93;6.43;;;12.80;99.90;;;;;;5105611;28;21216;-92
2021/08/29 06:30:56;;;;;;;7.27;6.67;;;12.90;99.90;;;;;;5106625;28;20984;-93
2021/08/29 06:33:23;;;;;;;7.40;6.80;;;12.90;99.90;;;;;;5111582;28;20663;-91
2021/08/29 06:35:53;;;;;;;6.57;5.97;;;12.90;99.90;;;;;;5110641;28;20670;-94
2021/08/29 06:38:21;;;;;;;5.53;5.13;;;13.00;99.90;;;;;;5107519;28;20619;-91
2021/08/29 06:40:53;;;;;;;7.80;6.03;;;13.00;99.90;;;;;;5116837;28;21237;-93
2021/08/29 06:43:27;;;;;;;7.00;6.50;;;13.00;99.90;;;;;;5115657;28;20661;-92
2021/08/29 06:45:56;;;;;;;5.77;5.37;;;13.00;99.90;;;;;;5115540;28;20659;-94
2021/08/29 06:48:30;;;;;;;6.73;6.23;;;13.10;99.90;;;;;;5126267;28;20703;-94
2021/08/29 06:54:13;;;;;;;6.73;6.23;;;13.10;99.90;;;;;;5123580;27;20649;-92
2021/08/29 06:56:43;;;;;;;5.77;5.37;;;13.20;99.90;;;;;;5111904;28;20619;-94
2021/08/29 06:59:11;;;;;;;5.53;5.00;;;13.10;99.90;;;;;;5101353;28;20735;-93
2021/08/29 07:01:44;;;;;;;5.10;4.80;;;13.00;99.90;;;;;;5096997;28;20675;-93
2021/08/29 07:04:57;;;;;;;5.60;5.23;;;13.10;99.90;;;;;;5105664;28;21240;-96
2021/08/29 07:07:25;;;;;;;4.40;4.10;;;13.10;99.90;;;;;;5346756;22;20687;-96
2021/08/29 07:26:15;;;;;;;2.77;2.57;;;13.50;99.90;;;;;;5102155;28;20668;-94
2021/08/29 07:28:45;;;;;;;3.27;3.07;;;13.40;99.90;;;;;;5094134;28;20695;-96
2021/08/29 07:31:14;;;;;;;3.43;3.13;;;13.50;99.90;;;;;;5097041;28;20711;-94
2021/08/29 07:33:44;;;;;;;2.70;2.60;;;13.40;99.90;;;;;;5098651;28;20727;-95
2021/08/29 07:36:12;;;;;;;3.70;3.40;;;13.50;99.90;;;;;;5076824;28;20720;-94
2021/08/29 07:38:39;;;;;;;3.80;3.50;;;13.60;99.90;;;;;;5069951;28;20629;-94
2021/08/29 07:41:08;;;;;;;2.90;2.70;;;13.70;99.90;;;;;;5053408;28;20672;-96
2021/08/29 07:43:39;;;;;;;3.03;2.83;;;13.60;99.90;;;;;;5071644;28;20966;-95
2021/08/29 07:46:08;;;;;;;2.73;2.53;;;13.60;99.90;;;;;;5072346;28;20661;-94
2021/08/29 07:48:35;;;;;;;2.30;2.20;;;13.70;99.90;;;;;;5074948;28;20645;-95
2021/08/29 07:55:02;;;;;;;1.83;1.73;;;13.40;99.90;;;;;;5650431;22;21085;-95
2021/08/29 07:57:31;;;;;;;1.70;1.60;;;13.50;99.90;;;;;;5072781;28;20618;-96
2021/08/29 08:00:07;;;;;;;1.83;1.73;;;13.50;99.90;;;;;;5078531;28;20551;-96
2021/08/29 08:26:34;;;;;;;1.70;1.60;;;13.60;99.90;;;;;;5081781;28;20714;-95
2021/08/29 08:29:04;;;;;;;2.17;1.50;;;13.70;99.90;;;;;;5065823;28;20774;-95
2021/08/29 08:31:31;;;;;;;1.50;1.40;;;13.80;99.90;;;;;;5061170;28;20204;-95
2021/08/29 08:34:11;;;;;;;1.70;1.60;;;13.80;99.90;;;;;;5066774;28;20708;-94
2021/08/29 08:36:40;;;;;;;1.60;1.50;;;13.80;99.90;;;;;;5061630;28;20645;-95
2021/08/29 08:39:07;;;;;;;1.97;1.40;;;13.90;99.90;;;;;;5057351;28;20757;-94
2021/08/29 08:41:35;;;;;;;1.27;1.17;;;14.10;99.90;;;;;;5056989;28;21035;-96
2021/08/29 08:44:03;;;;;;;1.20;1.10;;;14.20;99.90;;;;;;5056796;28;20739;-94
2021/08/29 08:46:35;;;;;;;1.40;1.30;;;14.10;99.90;;;;;;5060782;28;20610;-94
2021/08/29 08:49:06;;;;;;;1.38;1.27;;;14.20;99.90;;;;;;5060629;28;20757;-95
2021/08/29 08:52:01;;;;;;;3.77;1.33;;;14.20;99.90;;;;;;5062750;28;20214;-94
2021/08/29 08:54:50;;;;;;;2.00;0.90;;;14.30;99.90;;;;;;5056856;28;20631;-94
2021/08/29 08:57:21;;;;;;;1.30;0.80;;;14.30;99.90;;;;;;5059330;28;20626;-96
2021/08/29 08:59:51;;;;;;;1.03;0.93;;;14.50;99.90;;;;;;5056466;28;20629;-95
2021/08/29 09:02:21;;;;;;;1.03;0.93;;;14.40;99.90;;;;;;5059859;28;20654;-95
2021/08/29 09:04:54;;;;;;;1.07;1.00;;;14.50;99.90;;;;;;5054339;28;20752;-95
2021/08/29 09:07:24;;;;;;;1.10;1.00;;;14.60;99.90;;;;;;5063314;28;20647;-96
2021/08/29 09:09:56;;;;;;;1.37;1.27;;;14.60;99.90;;;;;;5063193;28;21156;-94
2021/08/29 09:12:27;;;;;;;1.00;1.00;;;14.80;99.90;;;;;;5053234;28;20630;-95
2021/08/29 09:14:57;;;;;;;1.07;1.07;;;14.90;99.90;;;;;;5057615;28;20748;-95
2021/08/29 09:17:29;;;;;;;0.90;0.90;;;14.90;99.90;;;;;;5057387;28;20634;-94
2021/08/29 09:20:15;;;;;;;1.07;1.07;;;14.90;99.90;;;;;;5056996;28;20634;-95
2021/08/29 09:22:42;;;;;;;0.80;0.80;;;15.00;99.90;;;;;;5065323;28;20637;-95
2021/08/29 09:25:23;;;;;;;1.00;1.00;;;14.80;99.90;;;;;;5058317;28;20694;-95
2021/08/29 09:28:00;;;;;;;0.80;0.80;;;14.60;99.90;;;;;;5047596;28;20652;-95
2021/08/29 09:30:35;;;;;;;0.80;0.80;;;14.60;99.90;;;;;;5052819;28;20629;-95
2021/08/29 09:33:06;;;;;;;0.70;0.70;;;14.70;99.90;;;;;;5063412;28;20752;-95
2021/08/29 09:35:36;;;;;;;0.80;0.80;;;14.70;99.90;;;;;;5059715;28;20720;-95
2021/08/29 09:38:07;;;;;;;0.77;0.77;;;14.70;99.90;;;;;;5055401;28;20678;-95
2021/08/29 09:40:45;;;;;;;0.97;0.80;;;14.60;99.90;;;;;;5057734;28;20709;-96
2021/08/29 09:43:15;;;;;;;1.00;1.00;;;14.70;99.90;;;;;;5061211;28;20632;-95
2021/08/29 09:45:44;;;;;;;0.97;0.93;;;14.50;99.90;;;;;;5051502;28;20657;-95
2021/08/29 09:48:14;;;;;;;1.00;1.00;;;14.50;99.90;;;;;;5055426;28;20704;-96
2021/08/29 09:50:46;;;;;;;0.70;0.70;;;14.50;99.90;;;;;;5062435;28;20618;-95
2021/08/29 09:53:14;;;;;;;1.30;1.20;;;14.60;99.90;;;;;;5074905;28;20622;-94
2021/08/29 09:55:44;;;;;;;1.23;1.13;;;14.60;99.90;;;;;;5075052;28;20733;-95
2021/08/29 09:58:23;;;;;;;1.23;0.60;;;14.90;99.90;;;;;;5055179;28;21473;-94
2021/08/29 10:01:08;;;;;;;0.83;0.83;;;15.20;99.90;;;;;;5056616;28;20741;-94
2021/08/29 10:03:37;;;;;;;1.00;0.80;;;15.20;99.90;;;;;;5066384;28;20633;-96
2021/08/29 10:06:15;;;;;;;0.70;0.70;;;15.30;99.90;;;;;;5067478;28;20657;-95
2021/08/29 10:08:48;;;;;;;0.60;0.43;;;15.40;99.90;;;;;;5062635;28;20654;-96
2021/08/29 10:11:16;;;;;;;0.60;0.60;;;15.50;99.90;;;;;;5064867;28;20648;-96
2021/08/29 10:13:46;;;;;;;0.53;0.50;;;15.30;99.90;;;;;;5064112;28;20618;-95
2021/08/29 10:16:14;;;;;;;0.70;0.50;;;15.30;99.90;;;;;;5064056;28;21254;-95
2021/08/29 10:18:47;;;;;;;0.60;0.50;;;15.40;99.90;;;;;;5066122;28;20680;-94
2021/08/29 10:21:16;;;;;;;0.73;0.70;;;15.20;99.90;;;;;;5065032;28;21084;-96
2021/08/29 10:23:51;;;;;;;0.60;0.60;;;15.10;99.90;;;;;;5059032;28;20697;-96
2021/08/29 10:26:20;;;;;;;2.90;0.73;;;15.10;99.90;;;;;;5057481;28;20728;-96
2021/08/29 10:28:57;;;;;;;0.80;0.70;;;15.20;99.90;;;;;;5059822;28;20717;-95
2021/08/29 10:36:58;;;;;;;0.60;0.60;;;15.00;99.90;;;;;;5062621;28;20722;-95
2021/08/29 10:39:27;;;;;;;1.87;0.90;;;15.10;99.90;;;;;;5067713;28;20689;-95
2021/08/29 10:42:00;;;;;;;0.63;0.63;;;15.10;99.90;;;;;;5063036;28;20656;-95
2021/08/29 10:44:34;;;;;;;0.60;0.60;;;14.90;99.90;;;;;;5062004;28;20637;-95
2021/08/29 10:47:07;;;;;;;0.77;0.57;;;15.00;99.90;;;;;;5061226;28;20645;-96
2021/08/29 10:55:06;;;;;;;0.50;0.50;;;15.20;99.90;;;;;;5066523;28;20657;-95
2021/08/29 10:57:40;;;;;;;0.60;0.60;;;15.30;99.90;;;;;;5066794;28;20625;-96
2021/08/29 11:00:42;;;;;;;1.43;0.70;;;15.30;99.90;;;;;;5062600;28;20637;-95
2021/08/29 11:03:27;;;;;;;0.80;0.40;;;15.20;99.90;;;;;;5063903;28;20686;-96
2021/08/29 11:05:55;;;;;;;0.80;0.70;;;15.00;99.90;;;;;;5058106;28;20752;-94
2021/08/29 11:08:26;;;;;;;0.63;0.63;;;14.90;99.90;;;;;;5054676;28;20761;-95
2021/08/29 11:10:55;;;;;;;1.23;0.70;;;14.90;99.90;;;;;;5056118;28;20666;-95
2021/08/29 11:13:44;;;;;;;0.80;0.57;;;14.90;99.90;;;;;;5058954;28;20624;-95
2021/08/29 11:16:32;;;;;;;0.70;0.70;;;14.90;99.90;;;;;;5067921;28;20633;-96
2021/08/29 11:19:19;;;;;;;0.73;0.70;;;14.80;99.90;;;;;;5059582;28;20688;-95
2021/08/29 11:22:12;;;;;;;0.87;0.80;;;14.80;99.90;;;;;;5057497;28;20636;-95
2021/08/29 11:25:01;;;;;;;0.60;0.60;;;14.80;99.90;;;;;;5059652;28;20672;-95
2021/08/29 11:27:52;;;;;;;0.80;0.80;;;14.70;99.90;;;;;;5068978;28;20618;-95
2021/08/29 11:30:23;;;;;;;1.97;0.87;;;14.70;99.90;;;;;;5058117;28;20717;-96
2021/08/29 11:33:00;;;;;;;1.17;1.10;;;14.80;99.90;;;;;;5059121;28;20668;-95
2021/08/29 11:35:29;;;;;;;1.40;1.30;;;14.90;99.90;;;;;;5059850;28;20633;-95
2021/08/29 11:38:12;;;;;;;1.60;1.50;;;14.90;99.90;;;;;;5057156;28;21228;-96
2021/08/29 11:41:03;;;;;;;1.30;1.20;;;14.90;99.90;;;;;;5057245;28;20629;-95
2021/08/29 11:43:37;;;;;;;1.00;0.90;;;14.90;99.90;;;;;;5047436;28;20649;-95
2021/08/29 11:46:10;;;;;;;1.27;0.70;;;14.90;99.90;;;;;;5056369;28;20664;-94
2021/08/29 11:48:50;;;;;;;0.63;0.63;;;15.00;99.90;;;;;;5057541;28;20757;-95
2021/08/29 11:51:28;;;;;;;0.70;0.60;;;15.00;99.90;;;;;;5061646;28;21129;-95
2021/08/29 11:53:59;;;;;;;2.33;0.60;;;15.10;99.90;;;;;;5066369;28;20640;-95
2021/08/29 11:56:34;;;;;;;0.70;0.70;;;15.10;99.90;;;;;;5066627;28;20648;-95
2021/08/29 11:59:03;;;;;;;3.57;3.27;;;15.20;99.90;;;;;;5056175;28;20673;-94
2021/08/29 12:01:33;;;;;;;2.47;2.27;;;15.30;99.90;;;;;;5054610;28;20695;-96
2021/08/29 12:04:04;;;;;;;1.90;1.80;;;15.40;99.90;;;;;;5064535;28;20629;-95
2021/08/29 12:06:42;;;;;;;4.03;2.37;;;15.50;99.90;;;;;;5067664;28;20668;-95
2021/08/29 12:09:18;;;;;;;3.97;2.00;;;15.60;99.90;;;;;;5055349;28;20657;-95
2021/08/29 12:11:51;;;;;;;2.40;2.20;;;15.50;99.90;;;;;;5077503;28;20748;-95
2021/08/29 12:14:19;;;;;;;3.07;2.87;;;15.50;99.90;;;;;;5071800;28;20665;-94
2021/08/29 12:16:59;;;;;;;2.90;2.47;;;15.40;99.90;;;;;;5057858;28;20613;-95
2021/08/29 12:19:31;;;;;;;3.10;2.80;;;15.40;99.90;;;;;;5056904;28;21231;-96
2021/08/29 12:21:59;;;;;;;3.10;2.90;;;15.40;99.90;;;;;;5057939;28;20745;-95
2021/08/29 12:24:32;;;;;;;3.63;3.30;;;15.40;99.90;;;;;;5061318;28;21164;-94
2021/08/29 12:27:13;;;;;;;2.30;2.20;;;15.40;99.90;;;;;;5026976;28;21199;-95
2021/08/29 12:29:49;;;;;;;2.80;2.60;;;15.40;99.90;;;;;;5067506;28;20697;-95
2021/08/29 12:32:18;;;;;;;4.30;4.00;;;15.40;99.90;;;;;;5068676;28;20652;-95
2021/08/29 12:34:53;;;;;;;3.53;3.10;;;15.40;99.90;;;;;;5056261;28;20634;-95
2021/08/29 12:37:23;;;;;;;3.37;2.97;;;15.60;99.90;;;;;;5049776;28;20621;-95
2021/08/29 12:39:59;;;;;;;3.53;3.33;;;15.70;99.90;;;;;;5064347;28;20706;-96
2021/08/29 12:42:35;;;;;;;3.07;2.87;;;15.90;99.90;;;;;;5063911;28;20630;-95
2021/08/29 12:45:05;;;;;;;3.20;3.00;;;16.00;99.90;;;;;;5073867;28;20629;-94
2021/08/29 12:47:32;;;;;;;3.50;3.20;;;16.20;99.90;;;;;;5076978;28;20792;-95
2021/08/29 12:50:08;;;;;;;3.83;3.53;;;16.20;99.90;;;;;;5074453;28;20622;-95
2021/08/29 12:52:41;;;;;;;3.20;3.00;;;16.30;99.90;;;;;;5076508;28;20640;-95
2021/08/29 12:55:11;;;;;;;3.40;3.20;;;16.40;99.90;;;;;;5071242;28;21228;-94
2021/08/29 12:57:40;;;;;;;4.13;3.30;;;16.40;99.90;;;;;;5072523;28;20765;-93
2021/08/29 13:00:10;;;;;;;5.47;4.40;;;16.30;99.90;;;;;;5068587;28;20712;-94
2021/08/29 13:02:39;;;;;;;2.83;2.63;;;16.20;99.90;;;;;;5071254;28;20630;-94
2021/08/29 13:05:34;;;;;;;4.10;3.67;;;16.00;99.90;;;;;;5061865;28;20638;-95
2021/08/29 13:08:03;;;;;;;4.47;4.17;;;15.70;99.90;;;;;;5065934;28;20689;-94
2021/08/29 13:10:33;;;;;;;4.50;4.20;;;15.60;99.90;;;;;;5055770;28;21083;-95
2021/08/29 13:13:08;;;;;;;4.47;4.17;;;15.60;99.90;;;;;;5054275;28;20622;-95
2021/08/29 13:15:36;;;;;;;4.73;4.10;;;15.50;99.90;;;;;;5071255;28;20642;-94
2021/08/29 13:18:04;;;;;;;5.30;4.80;;;15.40;99.90;;;;;;5075366;28;20789;-95
2021/08/29 13:20:37;;;;;;;5.70;5.30;;;15.50;99.90;;;;;;5061971;28;20627;-94
2021/08/29 13:26:05;;;;;;;4.03;3.73;;;15.40;99.90;;;;;;5058192;28;21051;-94
2021/08/29 13:28:32;;;;;;;4.53;3.90;;;15.40;99.90;;;;;;5067096;28;20672;-94
2021/08/29 13:31:05;;;;;;;4.80;4.50;;;15.30;99.90;;;;;;5076186;28;20706;-95
2021/08/29 13:33:35;;;;;;;4.77;4.47;;;15.40;99.90;;;;;;5077624;28;20610;-95
2021/08/29 13:36:11;;;;;;;5.00;4.70;;;15.30;99.90;;;;;;5061429;28;20647;-94
2021/08/29 13:38:41;;;;;;;5.10;4.80;;;15.50;99.90;;;;;;5053645;28;20653;-95
2021/08/29 13:41:08;;;;;;;5.07;4.77;;;15.40;99.90;;;;;;5057771;28;20659;-94
2021/08/29 13:43:41;;;;;;;5.97;5.47;;;15.30;99.90;;;;;;5055429;28;20614;-94
2021/08/29 13:46:17;;;;;;;6.37;5.87;;;15.40;99.90;;;;;;5062762;28;20705;-93
2021/08/29 13:48:44;;;;;;;6.07;5.60;;;15.30;99.90;;;;;;5051161;28;20685;-94
2021/08/29 13:51:15;;;;;;;6.90;6.40;;;15.30;99.90;;;;;;5050685;28;20694;-94
2021/08/29 13:53:48;;;;;;;6.47;5.97;;;15.30;99.90;;;;;;5056302;28;20625;-94
2021/08/29 13:58:52;;;;;;;5.97;5.47;;;15.20;99.90;;;;;;5103220;28;20992;-94
2021/08/29 14:01:22;;;;;;;6.63;6.10;;;15.10;99.90;;;;;;5106237;28;21041;-95
2021/08/29 14:03:50;;;;;;;5.73;5.33;;;15.10;99.90;;;;;;5101796;28;20813;-95
2021/08/29 14:06:27;;;;;;;5.50;5.10;;;15.20;99.90;;;;;;5105328;28;20675;-95
2021/08/29 14:08:57;;;;;;;5.40;5.07;;;15.20;99.90;;;;;;5090493;28;20624;-94
2021/08/29 14:11:26;;;;;;;6.00;5.50;;;15.20;99.90;;;;;;5107002;28;20648;-94
2021/08/29 14:13:55;;;;;;;6.10;5.70;;;15.20;99.90;;;;;;5087903;28;20628;-94
2021/08/29 14:16:22;;;;;;;5.33;5.00;;;15.30;99.90;;;;;;5090068;28;20652;-95
2021/08/29 14:18:49;;;;;;;6.23;5.73;;;15.40;99.90;;;;;;5087449;28;20697;-94
2021/08/29 14:21:18;;;;;;;7.30;6.73;;;15.50;99.90;;;;;;5095363;28;20692;-93
2021/08/29 14:23:47;;;;;;;5.47;5.00;;;15.60;99.90;;;;;;5090956;28;20673;-96
2021/08/29 14:26:14;;;;;;;7.10;6.60;;;15.50;99.90;;;;;;5096045;22;20626;-94
2021/08/29 14:28:43;;;;;;;6.27;5.77;;;15.50;99.90;;;;;;5074437;28;20705;-95
2021/08/29 14:31:10;;;;;;;5.37;4.97;;;15.60;99.90;;;;;;5086355;28;21168;-93
2021/08/29 14:33:41;;;;;;;5.50;5.10;;;15.50;99.90;;;;;;5089606;28;20619;-94
2021/08/29 14:36:12;;;;;;;4.73;4.43;;;15.60;99.90;;;;;;5090134;28;20652;-93